Main page
METAR-TAF:

METAR-TAF

Airports :

Afonsos Air Force Base

Rio de Janeiro, Rio de Janeiro, Brazil

latitude: 22-52S, longitude: 043-22W, elevation: 34 m

Current weather observation

The report was made 24 minutes ago, at 00:00 UTC
Wind 6 kt from the Southeast
Temperature 25°C
Humidity 79%
Pressure 1009 hPa
Visibility 10 km or more
Scattered clouds at a height of 2500 ft
Overcast at a height of 10000 ft

METAR: SBAF 160000Z 14006KT 9999 SCT025 OVC100 25/21 Q1009

Time: 22:24 (00:24 UTC)

Forecast

The report was made 9 hours and 24 minutes ago, at 15:00 UTC
Forecast valid from 15 at 18 UTC to 16 at 06 UTC
Wind 7 kt from the Southwest
Visibility 10 km or more
Scattered clouds at a height of 3500 ft
Probability 40% :
Temporary
from 16 at 00 UTC to 16 at 06 UTC
Visibility: 8000 m
Broken clouds at a height of 2000 ft
rain

TAF: SBAF 151500Z 1518/1606 23007KT 9999 SCT035 TX28/1518Z TN23/1606Z PROB40 TEMPO 1600/1606 8000 RA BKN020 RMK PDW

Weather observations and forecasts of more than 4000 airports (METAR and TAF reports).

The available stations are represented by yellow and red dots on the map.

Hover mouse over dot to see the name of the station.

Then click to see weather observations and forecasts.

To change the map : click on the green buttons with a black cross to zoom in, on the green button with a dash to zoom out, or on the green arrows for adjacent maps.


METAR-TAF: